createdAt,value
2023-11-18T00:00:13.510Z,0.00
2023-11-18T00:01:13.338Z,0.00
2023-11-18T00:02:13.416Z,0.00
2023-11-18T00:03:13.415Z,0.00
2023-11-18T00:04:13.372Z,0.00
2023-11-18T00:05:13.333Z,0.00
2023-11-18T00:06:13.294Z,0.00
2023-11-18T00:07:13.297Z,0.00
2023-11-18T00:08:13.298Z,0.00
2023-11-18T00:09:13.284Z,0.00
2023-11-18T00:10:13.289Z,0.00
2023-11-18T00:11:13.299Z,0.00
2023-11-18T00:12:13.241Z,0.00
2023-11-18T00:13:13.261Z,0.00
2023-11-18T00:14:13.297Z,0.00
2023-11-18T00:15:13.443Z,0.00
2023-11-18T00:16:13.322Z,0.00
2023-11-18T00:17:13.280Z,0.00
2023-11-18T00:18:13.289Z,0.00
2023-11-18T00:19:13.235Z,0.00
2023-11-18T00:20:13.519Z,0.00
2023-11-18T00:21:13.247Z,0.00
2023-11-18T00:22:13.188Z,0.00
2023-11-18T00:23:13.189Z,0.00
2023-11-18T00:24:13.168Z,0.00
2023-11-18T00:25:13.178Z,0.00
2023-11-18T00:26:13.152Z,0.00
2023-11-18T00:27:13.198Z,0.00
2023-11-18T00:28:13.134Z,0.00
2023-11-18T00:29:13.169Z,0.00
2023-11-18T00:30:13.157Z,0.00
2023-11-18T00:31:13.177Z,0.00
2023-11-18T00:32:13.290Z,0.00
2023-11-18T00:33:13.198Z,0.00
2023-11-18T00:34:13.099Z,0.00
2023-11-18T00:35:13.138Z,0.00
2023-11-18T00:36:13.121Z,0.00
2023-11-18T00:37:13.097Z,0.00
2023-11-18T00:38:13.085Z,0.00
2023-11-18T00:39:13.092Z,0.00
2023-11-18T00:40:13.058Z,0.00
2023-11-18T00:41:13.071Z,0.00
2023-11-18T00:42:13.059Z,0.00
2023-11-18T00:43:13.058Z,0.00
2023-11-18T00:44:13.043Z,0.00
2023-11-18T00:45:13.053Z,0.00
2023-11-18T00:46:13.042Z,0.00
2023-11-18T00:47:13.112Z,0.00
2023-11-18T00:48:13.043Z,0.00
2023-11-18T00:49:13.047Z,0.00
2023-11-18T00:50:13.094Z,0.00
2023-11-18T00:51:13.014Z,0.00
2023-11-18T00:52:12.990Z,0.00
2023-11-18T00:53:12.998Z,0.00
2023-11-18T00:54:13.001Z,0.00
2023-11-18T00:55:13.016Z,0.00
2023-11-18T00:56:12.957Z,0.00
2023-11-18T00:57:12.997Z,0.00
2023-11-18T00:58:12.950Z,0.00
2023-11-18T00:59:12.940Z,0.00
2023-11-18T01:00:12.945Z,0.00
2023-11-18T01:01:12.999Z,0.00
2023-11-18T01:02:12.991Z,0.00
2023-11-18T01:03:13.034Z,0.00
2023-11-18T01:04:12.898Z,0.00
2023-11-18T01:05:12.940Z,0.00
2023-11-18T01:06:12.883Z,0.00
2023-11-18T01:07:12.914Z,0.00
2023-11-18T01:08:12.871Z,0.00
2023-11-18T01:09:12.881Z,0.00
2023-11-18T01:10:12.884Z,0.00
2023-11-18T01:11:12.865Z,0.00
2023-11-18T01:12:12.846Z,0.00
2023-11-18T01:13:12.867Z,0.00
2023-11-18T01:14:12.925Z,0.00
2023-11-18T01:15:12.888Z,0.00
2023-11-18T01:16:12.823Z,0.00
2023-11-18T01:17:12.831Z,0.00
2023-11-18T01:18:12.919Z,0.00
2023-11-18T01:19:12.814Z,0.00
2023-11-18T01:20:12.842Z,0.00
2023-11-18T01:21:12.801Z,0.00
2023-11-18T01:22:12.782Z,0.00
2023-11-18T01:23:12.784Z,0.00
2023-11-18T01:24:12.755Z,0.00
2023-11-18T01:25:12.810Z,0.00
2023-11-18T01:26:12.767Z,0.00
2023-11-18T01:27:12.761Z,0.00
2023-11-18T01:28:12.764Z,0.00
2023-11-18T01:29:12.753Z,0.00
2023-11-18T01:30:12.739Z,0.00
2023-11-18T01:31:12.777Z,0.00
2023-11-18T01:32:12.939Z,0.00
2023-11-18T01:33:12.793Z,0.00
2023-11-18T01:34:12.713Z,0.00
2023-11-18T01:35:12.726Z,0.00
2023-11-18T01:36:12.688Z,0.00
2023-11-18T01:37:12.708Z,0.00
2023-11-18T01:38:12.673Z,0.00
2023-11-18T01:39:12.682Z,0.00
2023-11-18T01:40:12.688Z,0.00
2023-11-18T01:41:12.679Z,0.00
2023-11-18T01:42:12.653Z,0.00
2023-11-18T01:43:12.661Z,0.00
2023-11-18T01:44:12.667Z,0.00
2023-11-18T01:45:12.681Z,0.00
2023-11-18T01:46:12.640Z,0.00
2023-11-18T01:47:12.738Z,0.00
2023-11-18T01:48:12.611Z,0.00
2023-11-18T01:49:12.618Z,0.00
2023-11-18T01:50:12.766Z,0.00
2023-11-18T01:51:12.621Z,0.00
2023-11-18T01:52:12.592Z,0.00
2023-11-18T01:53:12.629Z,0.00
2023-11-18T01:54:12.581Z,0.00
2023-11-18T01:55:12.593Z,0.00
2023-11-18T01:56:12.612Z,0.00
2023-11-18T01:57:12.568Z,0.00
2023-11-18T01:58:12.563Z,0.00
2023-11-18T01:59:12.558Z,0.00
2023-11-18T02:00:12.574Z,0.00
2023-11-18T02:01:12.573Z,0.00
2023-11-18T02:02:12.669Z,0.00
2023-11-18T02:03:12.617Z,0.00
2023-11-18T02:04:12.597Z,0.00
2023-11-18T02:05:12.579Z,0.00
2023-11-18T02:06:12.502Z,0.00
2023-11-18T02:07:12.510Z,0.00
2023-11-18T02:08:12.494Z,0.00
2023-11-18T02:09:12.491Z,0.00
2023-11-18T02:10:12.474Z,0.00
2023-11-18T02:11:12.499Z,0.00
2023-11-18T02:12:12.458Z,0.00
2023-11-18T02:13:12.472Z,0.00
2023-11-18T02:14:12.463Z,0.00
2023-11-18T02:15:12.477Z,0.00
2023-11-18T02:16:12.436Z,0.00
2023-11-18T02:17:12.445Z,0.00
2023-11-18T02:18:12.498Z,0.00
2023-11-18T02:19:12.435Z,0.00
2023-11-18T02:20:12.468Z,0.00
2023-11-18T02:21:12.458Z,0.00
2023-11-18T02:22:12.518Z,0.00
2023-11-18T02:23:12.408Z,0.00
2023-11-18T02:24:12.390Z,0.00
2023-11-18T02:25:12.401Z,0.00
2023-11-18T02:26:12.419Z,0.00
2023-11-18T02:27:12.411Z,0.00
2023-11-18T02:28:12.358Z,0.00
2023-11-18T02:29:12.480Z,0.00
2023-11-18T02:30:12.344Z,0.00
2023-11-18T02:31:12.384Z,0.00
2023-11-18T02:32:12.331Z,0.00
2023-11-18T02:33:12.426Z,0.00
2023-11-18T02:34:12.323Z,0.00
2023-11-18T02:35:12.431Z,0.00
2023-11-18T02:36:12.317Z,0.00
2023-11-18T02:37:12.336Z,0.00
2023-11-18T02:38:12.365Z,0.00
2023-11-18T02:39:12.347Z,0.00
2023-11-18T02:40:12.303Z,0.00
2023-11-18T02:41:12.306Z,0.00
2023-11-18T02:42:12.274Z,0.00
2023-11-18T02:43:12.309Z,0.00
2023-11-18T02:44:12.266Z,0.00
2023-11-18T02:45:12.288Z,0.00
2023-11-18T02:46:12.277Z,0.00
2023-11-18T02:47:12.290Z,0.00
2023-11-18T02:48:12.264Z,0.00
2023-11-18T02:49:12.272Z,0.00
2023-11-18T02:50:12.457Z,0.00
2023-11-18T02:51:12.266Z,0.00
2023-11-18T02:52:12.210Z,0.00
2023-11-18T02:53:12.304Z,0.00
2023-11-18T02:54:12.212Z,0.00
2023-11-18T02:55:12.227Z,0.00
2023-11-18T02:56:12.242Z,0.00
2023-11-18T02:57:12.210Z,0.00
2023-11-18T02:58:12.179Z,0.00
2023-11-18T02:59:12.178Z,0.00
2023-11-18T03:00:12.226Z,0.00
2023-11-18T03:01:12.212Z,0.00
2023-11-18T03:02:12.230Z,0.00
2023-11-18T03:03:12.206Z,0.00
2023-11-18T03:04:12.184Z,0.00
2023-11-18T03:05:12.136Z,0.00
2023-11-18T03:06:12.142Z,0.00
2023-11-18T03:07:12.152Z,0.00
2023-11-18T03:08:12.174Z,0.00
2023-11-18T03:09:12.117Z,0.00
2023-11-18T03:10:12.135Z,0.00
2023-11-18T03:11:12.127Z,0.00
2023-11-18T03:12:12.081Z,0.00
2023-11-18T03:13:12.108Z,0.00
2023-11-18T03:14:12.137Z,0.00
2023-11-18T03:15:12.072Z,0.00
2023-11-18T03:16:12.072Z,0.00
2023-11-18T03:17:12.110Z,0.00
2023-11-18T03:18:12.088Z,0.00
2023-11-18T03:19:12.071Z,0.00
2023-11-18T03:20:12.084Z,0.00
2023-11-18T03:21:12.038Z,0.00
2023-11-18T03:22:12.009Z,0.00
2023-11-18T03:23:12.065Z,0.00
2023-11-18T03:24:12.003Z,0.00
2023-11-18T03:25:12.019Z,0.00
2023-11-18T03:26:12.001Z,0.00
2023-11-18T03:27:12.034Z,0.00
2023-11-18T03:28:11.974Z,0.00
2023-11-18T03:29:12.073Z,0.00
2023-11-18T03:30:11.978Z,0.00
2023-11-18T03:31:11.972Z,0.00
2023-11-18T03:32:11.981Z,0.00
2023-11-18T03:33:12.099Z,0.00
2023-11-18T03:34:11.980Z,0.00
2023-11-18T03:35:12.116Z,0.00
2023-11-18T03:36:11.915Z,0.00
2023-11-18T03:37:11.930Z,0.00
2023-11-18T03:38:11.936Z,0.00
2023-11-18T03:39:11.922Z,0.00
2023-11-18T03:40:11.891Z,0.00
2023-11-18T03:41:11.949Z,0.00
2023-11-18T03:42:11.887Z,0.00
2023-11-18T03:43:11.904Z,0.00
2023-11-18T03:44:11.886Z,0.00
2023-11-18T03:45:11.927Z,0.00
2023-11-18T03:46:11.929Z,0.00
2023-11-18T03:47:11.911Z,0.00
2023-11-18T03:48:11.877Z,0.00
2023-11-18T03:49:11.872Z,0.00
2023-11-18T03:50:11.941Z,0.00
2023-11-18T03:51:11.843Z,0.00
2023-11-18T03:52:11.815Z,0.00
2023-11-18T03:53:11.840Z,0.00
2023-11-18T03:54:11.824Z,0.00
2023-11-18T03:55:11.816Z,0.00
2023-11-18T03:56:11.792Z,0.00
2023-11-18T03:57:11.802Z,0.00
2023-11-18T03:58:11.780Z,0.00
2023-11-18T03:59:11.836Z,0.00
2023-11-18T04:00:11.765Z,0.00
2023-11-18T04:01:11.811Z,0.00
2023-11-18T04:02:11.798Z,0.00
2023-11-18T04:03:11.835Z,0.00
2023-11-18T04:04:11.782Z,0.00
2023-11-18T04:05:11.845Z,0.00
2023-11-18T04:06:11.739Z,0.00
2023-11-18T04:07:11.740Z,0.00
2023-11-18T04:08:11.754Z,0.00
2023-11-18T04:09:11.725Z,0.00
2023-11-18T04:10:11.833Z,0.00
2023-11-18T04:11:11.754Z,0.00
2023-11-18T04:12:11.696Z,0.00
2023-11-18T04:13:11.711Z,0.00
2023-11-18T04:14:11.722Z,0.00
2023-11-18T04:15:11.691Z,0.00
2023-11-18T04:16:11.690Z,0.00
2023-11-18T04:17:11.798Z,0.00
2023-11-18T04:18:11.710Z,0.00
2023-11-18T04:19:11.664Z,0.00
2023-11-18T04:20:11.702Z,0.00
2023-11-18T04:21:11.650Z,0.00
2023-11-18T04:22:11.627Z,0.00
2023-11-18T04:23:11.675Z,0.00
2023-11-18T04:24:11.609Z,0.00
2023-11-18T04:25:11.660Z,0.00
2023-11-18T04:26:11.636Z,0.00
2023-11-18T04:27:11.607Z,0.00
2023-11-18T04:28:11.610Z,0.00
2023-11-18T04:29:11.658Z,0.00
2023-11-18T04:30:11.577Z,0.00
2023-11-18T04:31:11.592Z,0.00
2023-11-18T04:32:11.608Z,0.00
2023-11-18T04:33:11.565Z,0.00
2023-11-18T04:34:11.552Z,0.00
2023-11-18T04:35:11.602Z,0.00
2023-11-18T04:36:11.564Z,0.00
2023-11-18T04:37:11.556Z,0.00
2023-11-18T04:38:11.536Z,0.00
2023-11-18T04:39:11.534Z,0.00
2023-11-18T04:40:11.541Z,0.00
2023-11-18T04:41:11.569Z,0.00
2023-11-18T04:42:11.509Z,0.00
2023-11-18T04:43:11.508Z,0.00
2023-11-18T04:44:11.522Z,0.00
2023-11-18T04:45:11.510Z,0.00
2023-11-18T04:46:11.491Z,0.00
2023-11-18T04:47:11.562Z,0.00
2023-11-18T04:48:11.549Z,0.00
2023-11-18T04:49:11.522Z,0.00
2023-11-18T04:50:11.472Z,0.00
2023-11-18T04:51:11.452Z,0.00
2023-11-18T04:52:11.446Z,0.00
2023-11-18T04:53:11.473Z,0.00
2023-11-18T04:54:11.419Z,0.00
2023-11-18T04:55:11.419Z,0.00
2023-11-18T04:56:11.504Z,0.00
2023-11-18T04:57:11.421Z,0.00
2023-11-18T04:58:11.390Z,0.00
2023-11-18T04:59:11.434Z,0.00
2023-11-18T05:00:11.426Z,0.00
2023-11-18T05:01:11.434Z,0.00
2023-11-18T05:02:11.514Z,0.00
2023-11-18T05:03:11.449Z,0.00
2023-11-18T05:04:11.390Z,0.00
2023-11-18T05:05:11.398Z,0.00
2023-11-18T05:06:11.346Z,0.00
2023-11-18T05:07:11.345Z,0.00
2023-11-18T05:08:11.421Z,0.00
2023-11-18T05:09:11.337Z,0.00
2023-11-18T05:10:11.349Z,0.00
2023-11-18T05:11:11.380Z,0.00
2023-11-18T05:12:11.301Z,0.00
2023-11-18T05:13:11.313Z,0.00
2023-11-18T05:14:11.319Z,0.00
2023-11-18T05:15:11.304Z,0.00
2023-11-18T05:16:11.313Z,0.00
2023-11-18T05:17:11.389Z,0.00
2023-11-18T05:18:11.363Z,0.00
2023-11-18T05:19:11.288Z,0.00
2023-11-18T05:20:11.287Z,0.00
2023-11-18T05:21:11.286Z,0.00
2023-11-18T05:22:11.241Z,0.00
2023-11-18T05:23:11.375Z,0.00
2023-11-18T05:24:11.229Z,0.00
2023-11-18T05:25:11.372Z,0.00
2023-11-18T05:26:11.256Z,0.00
2023-11-18T05:27:11.227Z,0.00
2023-11-18T05:28:11.217Z,0.00
2023-11-18T05:29:11.316Z,0.00
2023-11-18T05:30:11.194Z,0.00
2023-11-18T05:31:11.208Z,0.00
2023-11-18T05:32:11.203Z,0.00
2023-11-18T05:33:11.224Z,0.00
2023-11-18T05:34:11.169Z,0.00
2023-11-18T05:35:11.234Z,0.00
2023-11-18T05:36:11.135Z,0.00
2023-11-18T05:37:11.147Z,0.00
2023-11-18T05:38:11.191Z,0.00
2023-11-18T05:39:11.142Z,0.00
2023-11-18T05:40:11.123Z,0.00
2023-11-18T05:41:11.189Z,0.00
2023-11-18T05:42:11.101Z,0.00
2023-11-18T05:43:11.147Z,0.00
2023-11-18T05:44:11.146Z,0.00
2023-11-18T05:45:11.120Z,0.00
2023-11-18T05:46:11.120Z,0.00
2023-11-18T05:47:11.142Z,0.00
2023-11-18T05:48:11.122Z,0.00
2023-11-18T05:49:11.074Z,0.00
2023-11-18T05:50:11.129Z,0.00
2023-11-18T05:51:11.069Z,0.00
2023-11-18T05:52:11.030Z,0.00
2023-11-18T05:53:11.096Z,0.00
2023-11-18T05:54:11.018Z,0.00
2023-11-18T05:55:11.029Z,0.00
2023-11-18T05:56:11.051Z,0.00
2023-11-18T05:57:11.013Z,0.00
2023-11-18T05:58:10.996Z,0.00
2023-11-18T05:59:11.085Z,0.00
2023-11-18T06:00:10.985Z,1.00
2023-11-18T06:01:10.986Z,1.00
2023-11-18T06:02:11.048Z,1.00
2023-11-18T06:03:11.099Z,0.00
2023-11-18T06:04:11.065Z,0.00
2023-11-18T06:05:11.035Z,0.00
2023-11-18T06:06:10.943Z,1.00
2023-11-18T06:07:10.953Z,1.00
2023-11-18T06:08:11.017Z,1.00
2023-11-18T06:09:10.953Z,2.00
2023-11-18T06:10:10.909Z,2.00
2023-11-18T06:11:10.943Z,2.00
2023-11-18T06:12:10.901Z,2.00
2023-11-18T06:13:10.924Z,3.00
2023-11-18T06:14:10.918Z,6.00
2023-11-18T06:15:10.932Z,5.00
2023-11-18T06:16:10.878Z,5.00
2023-11-18T06:17:10.935Z,5.00
2023-11-18T06:18:10.919Z,4.00
2023-11-18T06:19:10.870Z,6.00
2023-11-18T06:20:10.945Z,5.00
2023-11-18T06:21:10.881Z,7.00
2023-11-18T06:22:10.832Z,9.00
2023-11-18T06:23:10.847Z,10.00
2023-11-18T06:24:10.823Z,13.00
2023-11-18T06:25:10.850Z,17.00
2023-11-18T06:26:10.847Z,17.00
2023-11-18T06:27:10.842Z,16.00
2023-11-18T06:28:10.801Z,17.00
2023-11-18T06:29:12.186Z,21.00
2023-11-18T06:30:10.802Z,22.00
2023-11-18T06:31:10.797Z,22.00
2023-11-18T06:32:10.876Z,23.00
2023-11-18T06:33:10.900Z,26.00
2023-11-18T06:34:10.767Z,29.00
2023-11-18T06:35:10.848Z,32.00
2023-11-18T06:36:10.763Z,32.00
2023-11-18T06:37:10.766Z,35.00
2023-11-18T06:38:10.774Z,40.00
2023-11-18T06:39:10.761Z,44.00
2023-11-18T06:40:10.724Z,48.00
2023-11-18T06:41:10.773Z,57.00
2023-11-18T06:42:10.748Z,66.00
2023-11-18T06:43:10.712Z,74.00
2023-11-18T06:44:11.070Z,85.00
2023-11-18T06:45:10.747Z,96.00
2023-11-18T06:46:13.812Z,104.00
2023-11-18T06:47:10.847Z,127.00
2023-11-18T06:48:10.765Z,140.00
2023-11-18T06:49:10.689Z,140.00
2023-11-18T06:50:10.762Z,147.00
2023-11-18T06:51:10.681Z,152.00
2023-11-18T06:52:10.645Z,149.00
2023-11-18T06:53:10.659Z,171.00
2023-11-18T06:54:11.735Z,197.00
2023-11-18T06:55:10.639Z,233.00
2023-11-18T06:56:10.671Z,247.00
2023-11-18T06:57:10.663Z,248.00
2023-11-18T06:58:10.602Z,261.00
2023-11-18T06:59:10.651Z,263.00
2023-11-18T07:00:10.583Z,264.00
2023-11-18T07:01:10.627Z,282.00
2023-11-18T07:02:10.622Z,264.00
2023-11-18T07:03:10.682Z,257.00
2023-11-18T07:04:10.590Z,260.00
2023-11-18T07:05:10.660Z,276.00
2023-11-18T07:06:10.557Z,266.00
2023-11-18T07:07:10.573Z,260.00
2023-11-18T07:08:10.626Z,274.00
2023-11-18T07:09:10.546Z,276.00
2023-11-18T07:10:10.517Z,289.00
2023-11-18T07:11:10.554Z,319.00
2023-11-18T07:12:10.530Z,329.00
2023-11-18T07:13:10.534Z,340.00
2023-11-18T07:14:10.749Z,380.00
2023-11-18T07:15:10.504Z,418.00
2023-11-18T07:16:10.524Z,440.00
2023-11-18T07:17:10.543Z,450.00
2023-11-18T07:18:10.500Z,486.00
2023-11-18T07:19:10.491Z,544.00
2023-11-18T07:20:10.475Z,556.00
2023-11-18T07:21:10.466Z,545.00
2023-11-18T07:22:10.464Z,525.00
2023-11-18T07:23:10.486Z,542.00
2023-11-18T07:24:10.447Z,614.00
2023-11-18T07:25:10.535Z,622.00
2023-11-18T07:26:10.465Z,696.00
2023-11-18T07:27:10.421Z,780.00
2023-11-18T07:28:10.404Z,865.00
2023-11-18T07:29:10.486Z,848.00
2023-11-18T07:30:10.413Z,788.00
2023-11-18T07:31:10.476Z,702.00
2023-11-18T07:32:10.426Z,639.00
2023-11-18T07:33:10.495Z,585.00
2023-11-18T07:34:10.361Z,573.00
2023-11-18T07:35:10.431Z,594.00
2023-11-18T07:36:10.365Z,616.00
2023-11-18T07:37:10.372Z,568.00
2023-11-18T07:38:10.382Z,490.00
2023-11-18T07:39:10.346Z,429.00
2023-11-18T07:40:10.324Z,404.00
2023-11-18T07:41:10.369Z,390.00
2023-11-18T07:42:10.354Z,373.00
2023-11-18T07:43:10.355Z,355.00
2023-11-18T07:44:10.342Z,347.00
2023-11-18T07:45:10.304Z,335.00
2023-11-18T07:46:10.323Z,343.00
2023-11-18T07:47:10.349Z,357.00
2023-11-18T07:48:10.314Z,366.00
2023-11-18T07:49:12.242Z,376.00
2023-11-18T07:50:10.299Z,386.00
2023-11-18T07:51:10.262Z,402.00
2023-11-18T07:52:10.264Z,419.00
2023-11-18T07:53:10.299Z,430.00
2023-11-18T07:54:10.233Z,411.00
2023-11-18T07:55:10.237Z,419.00
2023-11-18T07:56:10.267Z,422.00
2023-11-18T07:57:10.215Z,422.00
2023-11-18T07:58:10.227Z,431.00
2023-11-18T07:59:10.244Z,430.00
2023-11-18T08:00:10.193Z,434.00
2023-11-18T08:01:10.335Z,437.00
2023-11-18T08:02:10.240Z,450.00
2023-11-18T08:03:10.249Z,462.00
2023-11-18T08:04:10.243Z,466.00
2023-11-18T08:05:10.232Z,472.00
2023-11-18T08:06:10.152Z,494.00
2023-11-18T08:07:10.155Z,502.00
2023-11-18T08:08:10.154Z,505.00
2023-11-18T08:09:10.140Z,515.00
2023-11-18T08:10:10.112Z,552.00
2023-11-18T08:11:10.189Z,557.00
2023-11-18T08:12:10.101Z,557.00
2023-11-18T08:13:10.112Z,528.00
2023-11-18T08:14:10.254Z,526.00
2023-11-18T08:15:10.122Z,581.00
2023-11-18T08:16:10.616Z,585.00
2023-11-18T08:17:10.192Z,591.00
2023-11-18T08:18:10.147Z,632.00
2023-11-18T08:19:10.076Z,688.00
2023-11-18T08:20:10.171Z,703.00
2023-11-18T08:21:10.076Z,745.00
2023-11-18T08:22:10.057Z,756.00
2023-11-18T08:23:10.118Z,765.00
2023-11-18T08:24:10.039Z,1000.00
2023-11-18T08:25:10.042Z,1145.00
2023-11-18T08:26:10.045Z,1283.00
2023-11-18T08:27:10.034Z,1124.00
2023-11-18T08:28:10.048Z,1145.00
2023-11-18T08:29:10.083Z,1198.00
2023-11-18T08:30:10.041Z,1137.00
2023-11-18T08:31:10.022Z,1432.00
2023-11-18T08:32:10.035Z,1418.00
2023-11-18T08:33:10.195Z,1536.00
2023-11-18T08:34:09.979Z,1512.00
2023-11-18T08:35:10.064Z,1479.00
2023-11-18T08:36:09.952Z,1528.00
2023-11-18T08:37:09.977Z,1596.00
2023-11-18T08:38:09.979Z,1575.00
2023-11-18T08:39:12.135Z,1508.00
2023-11-18T08:40:09.931Z,1560.00
2023-11-18T08:41:09.972Z,1511.00
2023-11-18T08:42:09.917Z,1469.00
2023-11-18T08:43:10.032Z,1348.00
2023-11-18T08:44:18.409Z,1448.00
2023-11-18T08:45:10.904Z,1444.00
2023-11-18T08:46:09.935Z,1507.00
2023-11-18T08:47:10.031Z,1500.00
2023-11-18T08:48:10.241Z,1611.00
2023-11-18T08:49:09.883Z,1412.00
2023-11-18T08:50:09.938Z,1390.00
2023-11-18T08:51:11.592Z,1160.00
2023-11-18T08:52:09.851Z,977.00
2023-11-18T08:53:09.964Z,790.00
2023-11-18T08:54:09.831Z,661.00
2023-11-18T08:55:09.845Z,676.00
2023-11-18T08:56:09.839Z,654.00
2023-11-18T08:57:09.858Z,754.00
2023-11-18T08:58:09.810Z,976.00
2023-11-18T08:59:10.015Z,1074.00
2023-11-18T09:00:09.800Z,1020.00
2023-11-18T09:01:09.839Z,1074.00
2023-11-18T09:02:09.838Z,1129.00
2023-11-18T09:03:09.903Z,1157.00
2023-11-18T09:04:09.882Z,1028.00
2023-11-18T09:05:09.800Z,1058.00
2023-11-18T09:06:09.780Z,1085.00
2023-11-18T09:07:09.768Z,1234.00
2023-11-18T09:08:09.780Z,1485.00
2023-11-18T09:09:09.755Z,1633.00
2023-11-18T09:10:09.725Z,1873.00
2023-11-18T09:11:09.775Z,1914.00
2023-11-18T09:12:09.742Z,1771.00
2023-11-18T09:13:09.724Z,1847.00
2023-11-18T09:14:09.755Z,1953.00
2023-11-18T09:15:09.710Z,1906.00
2023-11-18T09:16:10.011Z,2027.00
2023-11-18T09:17:09.768Z,1900.00
2023-11-18T09:18:10.127Z,1835.00
2023-11-18T09:19:09.738Z,1806.00
2023-11-18T09:20:09.697Z,1835.00
2023-11-18T09:21:09.680Z,1341.00
2023-11-18T09:22:09.646Z,1654.00
2023-11-18T09:23:09.672Z,1497.00
2023-11-18T09:24:09.645Z,1552.00
2023-11-18T09:25:09.673Z,1122.00
2023-11-18T09:26:09.661Z,1179.00
2023-11-18T09:27:09.628Z,1640.00
2023-11-18T09:28:09.598Z,1713.00
2023-11-18T09:29:09.804Z,1870.00
2023-11-18T09:30:09.596Z,1977.00
2023-11-18T09:31:09.603Z,1563.00
2023-11-18T09:32:09.702Z,1705.00
2023-11-18T09:33:09.607Z,1712.00
2023-11-18T09:34:09.586Z,1718.00
2023-11-18T09:35:09.588Z,1829.00
2023-11-18T09:36:09.548Z,1772.00
2023-11-18T09:37:09.591Z,1856.00
2023-11-18T09:38:09.593Z,2079.00
2023-11-18T09:39:09.546Z,2068.00
2023-11-18T09:40:09.518Z,1966.00
2023-11-18T09:41:09.575Z,1823.00
2023-11-18T09:42:09.525Z,1663.00
2023-11-18T09:43:09.575Z,1882.00
2023-11-18T09:44:09.514Z,1939.00
2023-11-18T09:45:09.515Z,1770.00
2023-11-18T09:46:09.534Z,1400.00
2023-11-18T09:47:09.520Z,1477.00
2023-11-18T09:48:09.533Z,1612.00
2023-11-18T09:49:09.480Z,1651.00
2023-11-18T09:50:09.510Z,1600.00
2023-11-18T09:51:09.540Z,1589.00
2023-11-18T09:52:09.451Z,1733.00
2023-11-18T09:53:09.587Z,1779.00
2023-11-18T09:54:09.435Z,1765.00
2023-11-18T09:55:09.451Z,1748.00
2023-11-18T09:56:09.440Z,1800.00
2023-11-18T09:57:09.516Z,1628.00
2023-11-18T09:58:09.423Z,1822.00
2023-11-18T09:59:09.443Z,1916.00
2023-11-18T10:00:09.406Z,2014.00
2023-11-18T10:01:09.433Z,1828.00
2023-11-18T10:02:09.552Z,1656.00
2023-11-18T10:03:09.610Z,1237.00
2023-11-18T10:04:09.462Z,999.00
2023-11-18T10:05:09.460Z,1056.00
2023-11-18T10:06:09.349Z,1547.00
2023-11-18T10:07:09.368Z,1656.00
2023-11-18T10:08:09.386Z,1462.00
2023-11-18T10:09:09.348Z,1645.00
2023-11-18T10:10:09.332Z,1633.00
2023-11-18T10:11:09.379Z,1323.00
2023-11-18T10:12:09.330Z,1214.00
2023-11-18T10:13:09.355Z,1267.00
2023-11-18T10:14:09.315Z,1379.00
2023-11-18T10:15:09.308Z,1375.00
2023-11-18T10:16:09.307Z,1412.00
2023-11-18T10:17:09.361Z,1386.00
2023-11-18T10:18:09.400Z,1227.00
2023-11-18T10:19:09.351Z,1118.00
2023-11-18T10:20:09.297Z,1024.00
2023-11-18T10:21:09.287Z,983.00
2023-11-18T10:22:09.248Z,1033.00
2023-11-18T10:23:09.281Z,1065.00
2023-11-18T10:24:09.225Z,1077.00
2023-11-18T10:25:09.235Z,1101.00
2023-11-18T10:26:09.335Z,1130.00
2023-11-18T10:27:09.224Z,1160.00
2023-11-18T10:28:09.193Z,1304.00
2023-11-18T10:29:09.311Z,1254.00
2023-11-18T10:30:09.191Z,1229.00
2023-11-18T10:31:09.197Z,1246.00
2023-11-18T10:32:09.559Z,1141.00
2023-11-18T10:33:09.246Z,1130.00
2023-11-18T10:34:09.233Z,1158.00
2023-11-18T10:35:09.225Z,1155.00
2023-11-18T10:36:09.155Z,1186.00
2023-11-18T10:37:09.159Z,1153.00
2023-11-18T10:38:09.216Z,1144.00
2023-11-18T10:39:09.148Z,1077.00
2023-11-18T10:40:09.153Z,1019.00
2023-11-18T10:41:09.182Z,970.00
2023-11-18T10:42:09.116Z,994.00
2023-11-18T10:43:09.131Z,987.00
2023-11-18T10:44:09.342Z,971.00
2023-11-18T10:45:09.113Z,937.00
2023-11-18T10:46:09.136Z,915.00
2023-11-18T10:47:09.132Z,910.00
2023-11-18T10:48:09.108Z,914.00
2023-11-18T10:49:09.088Z,893.00
2023-11-18T10:50:09.121Z,885.00
2023-11-18T10:51:09.089Z,865.00
2023-11-18T10:52:09.072Z,845.00
2023-11-18T10:53:09.118Z,842.00
2023-11-18T10:54:09.041Z,817.00
2023-11-18T10:55:09.053Z,779.00
2023-11-18T10:56:09.092Z,801.00
2023-11-18T10:57:09.539Z,793.00
2023-11-18T10:58:09.018Z,783.00
2023-11-18T10:59:09.118Z,776.00
2023-11-18T11:00:09.020Z,763.00
2023-11-18T11:01:09.025Z,770.00
2023-11-18T11:02:09.038Z,815.00
2023-11-18T11:03:09.096Z,806.00
2023-11-18T11:04:08.988Z,800.00
2023-11-18T11:05:09.986Z,810.00
2023-11-18T11:06:09.023Z,835.00
2023-11-18T11:07:08.992Z,805.00
2023-11-18T11:08:09.029Z,810.00
2023-11-18T11:09:08.971Z,777.00
2023-11-18T11:10:08.956Z,756.00
2023-11-18T11:11:08.997Z,733.00
2023-11-18T11:12:08.938Z,725.00
2023-11-18T11:13:08.960Z,669.00
2023-11-18T11:14:09.054Z,644.00
2023-11-18T11:15:08.947Z,648.00
2023-11-18T11:16:08.910Z,627.00
2023-11-18T11:17:09.022Z,625.00
2023-11-18T11:18:09.030Z,615.00
2023-11-18T11:19:08.933Z,610.00
2023-11-18T11:20:08.936Z,615.00
2023-11-18T11:21:08.959Z,611.00
2023-11-18T11:22:08.870Z,627.00
2023-11-18T11:23:09.027Z,653.00
2023-11-18T11:24:08.859Z,667.00
2023-11-18T11:25:08.874Z,687.00
2023-11-18T11:26:08.994Z,703.00
2023-11-18T11:27:08.876Z,699.00
2023-11-18T11:28:08.839Z,696.00
2023-11-18T11:29:08.887Z,748.00
2023-11-18T11:30:08.822Z,820.00
2023-11-18T11:31:08.857Z,860.00
2023-11-18T11:32:08.864Z,870.00
2023-11-18T11:33:08.819Z,882.00
2023-11-18T11:34:08.842Z,851.00
2023-11-18T11:35:08.925Z,840.00
2023-11-18T11:36:08.787Z,879.00
2023-11-18T11:37:08.807Z,895.00
2023-11-18T11:38:08.838Z,917.00
2023-11-18T11:39:08.789Z,924.00
2023-11-18T11:40:08.765Z,935.00
2023-11-18T11:41:08.825Z,964.00
2023-11-18T11:42:08.769Z,990.00
2023-11-18T11:43:08.779Z,1017.00
2023-11-18T11:44:08.750Z,1016.00
2023-11-18T11:45:08.748Z,1021.00
2023-11-18T11:46:08.745Z,1003.00
2023-11-18T11:47:08.828Z,974.00
2023-11-18T11:48:08.812Z,938.00
2023-11-18T11:49:08.721Z,978.00
2023-11-18T11:50:08.739Z,979.00
2023-11-18T11:51:08.713Z,988.00
2023-11-18T11:52:08.693Z,999.00
2023-11-18T11:53:08.717Z,979.00
2023-11-18T11:54:08.680Z,968.00
2023-11-18T11:55:08.739Z,962.00
2023-11-18T11:56:08.704Z,935.00
2023-11-18T11:57:08.719Z,898.00
2023-11-18T11:58:08.659Z,903.00
2023-11-18T11:59:08.695Z,921.00
2023-11-18T12:00:08.647Z,945.00
2023-11-18T12:01:08.744Z,994.00
2023-11-18T12:02:08.694Z,1035.00
2023-11-18T12:03:09.585Z,1018.00
2023-11-18T12:04:08.786Z,995.00
2023-11-18T12:05:08.756Z,1003.00
2023-11-18T12:06:11.559Z,1029.00
2023-11-18T12:07:15.299Z,1055.00
2023-11-18T12:08:09.640Z,1118.00
2023-11-18T12:09:08.610Z,1183.00
2023-11-18T12:10:08.591Z,1272.00
2023-11-18T12:11:08.620Z,1351.00
2023-11-18T12:12:08.571Z,1379.00
2023-11-18T12:13:08.626Z,1437.00
2023-11-18T12:14:08.607Z,1438.00
2023-11-18T12:15:08.573Z,1441.00
2023-11-18T12:16:08.568Z,1403.00
2023-11-18T12:17:08.640Z,1398.00
2023-11-18T12:18:08.588Z,1446.00
2023-11-18T12:19:08.555Z,1437.00
2023-11-18T12:20:08.538Z,1399.00
2023-11-18T12:21:08.547Z,1347.00
2023-11-18T12:22:08.531Z,1280.00
2023-11-18T12:23:08.564Z,1240.00
2023-11-18T12:24:08.505Z,1281.00
2023-11-18T12:25:08.536Z,1353.00
2023-11-18T12:26:08.525Z,1378.00
2023-11-18T12:27:08.521Z,1375.00
2023-11-18T12:28:08.495Z,1351.00
2023-11-18T12:29:08.530Z,1344.00
2023-11-18T12:30:08.468Z,1350.00
2023-11-18T12:31:08.562Z,1362.00
2023-11-18T12:32:08.494Z,1392.00
2023-11-18T12:33:08.507Z,1403.00
2023-11-18T12:34:08.458Z,1394.00
2023-11-18T12:35:08.562Z,1391.00
2023-11-18T12:36:08.447Z,1388.00
2023-11-18T12:37:08.474Z,1374.00
2023-11-18T12:38:08.508Z,1355.00
2023-11-18T12:39:08.436Z,1321.00
2023-11-18T12:40:08.403Z,1283.00
2023-11-18T12:41:08.543Z,1219.00
2023-11-18T12:42:08.535Z,1151.00
2023-11-18T12:43:08.477Z,1126.00
2023-11-18T12:44:08.428Z,1087.00
2023-11-18T12:45:08.417Z,1020.00
2023-11-18T12:46:08.432Z,938.00
2023-11-18T12:47:08.409Z,895.00